createdAt,value
2023-05-05T00:00:49.902Z,0.0000
2023-05-05T00:01:52.355Z,0.0000
2023-05-05T00:02:54.866Z,0.0000
2023-05-05T00:03:57.574Z,0.0000
2023-05-05T00:05:00.008Z,0.0000
2023-05-05T00:06:02.459Z,0.0000
2023-05-05T00:07:04.909Z,0.0000
2023-05-05T00:08:07.577Z,0.0000
2023-05-05T00:09:10.054Z,0.0000
2023-05-05T00:10:12.486Z,0.0000
2023-05-05T00:11:15.259Z,0.0000
2023-05-05T00:12:17.761Z,0.0000
2023-05-05T00:13:20.364Z,0.0000
2023-05-05T00:14:22.811Z,0.0000
2023-05-05T00:15:25.289Z,0.0000
2023-05-05T00:16:28.047Z,0.0000
2023-05-05T00:17:30.516Z,0.0000
2023-05-05T00:18:33.019Z,0.0000
2023-05-05T00:19:35.473Z,0.0000
2023-05-05T00:20:37.953Z,0.0000
2023-05-05T00:21:40.429Z,0.0000
2023-05-05T00:22:42.930Z,0.0000
2023-05-05T00:23:45.406Z,0.0000
2023-05-05T00:24:47.902Z,0.0000
2023-05-05T00:25:50.773Z,0.0000
2023-05-05T00:26:53.276Z,0.0000
2023-05-05T00:27:55.783Z,0.0000
2023-05-05T00:28:58.280Z,0.0000
2023-05-05T00:30:00.780Z,0.0000
2023-05-05T00:31:03.283Z,0.0000
2023-05-05T00:32:05.787Z,0.0000
2023-05-05T00:33:08.353Z,0.0000
2023-05-05T00:34:10.898Z,0.0000
2023-05-05T00:35:13.392Z,0.0000
2023-05-05T00:36:15.861Z,0.0000
2023-05-05T00:37:18.371Z,0.0000
2023-05-05T00:38:21.101Z,0.0000
2023-05-05T00:39:23.613Z,0.0000
2023-05-05T00:40:26.134Z,0.0000
2023-05-05T00:41:28.681Z,0.0000
2023-05-05T00:42:31.202Z,0.0000
2023-05-05T00:43:33.766Z,0.0000
2023-05-05T00:44:36.306Z,0.0000
2023-05-05T00:45:38.796Z,0.0000
2023-05-05T00:46:41.435Z,0.0000
2023-05-05T00:47:43.941Z,0.0000
2023-05-05T00:48:46.419Z,0.0000
2023-05-05T00:49:48.916Z,0.0000
2023-05-05T00:50:51.388Z,0.0000
2023-05-05T00:51:53.840Z,0.0000
2023-05-05T00:52:56.317Z,0.0000
2023-05-05T00:53:58.823Z,0.0000
2023-05-05T00:55:01.318Z,0.0000
2023-05-05T00:56:03.762Z,0.0000
2023-05-05T00:57:06.219Z,0.0000
2023-05-05T00:58:08.686Z,0.0000
2023-05-05T00:59:11.148Z,0.0000
2023-05-05T01:00:13.631Z,0.0000
2023-05-05T01:01:16.100Z,0.0000
2023-05-05T01:02:18.539Z,0.0000
2023-05-05T01:03:21.051Z,0.0000
2023-05-05T01:04:23.550Z,0.0000
2023-05-05T01:05:25.974Z,0.0000
2023-05-05T01:06:28.462Z,0.0000
2023-05-05T01:07:30.907Z,0.0000
2023-05-05T01:08:33.373Z,0.0000
2023-05-05T01:09:35.893Z,0.0000
2023-05-05T01:10:38.325Z,0.0000
2023-05-05T01:11:40.824Z,0.0000
2023-05-05T01:12:43.333Z,0.0000
2023-05-05T01:13:45.797Z,0.0000
2023-05-05T01:14:48.268Z,0.0000
2023-05-05T01:15:50.773Z,0.0000
2023-05-05T01:16:53.197Z,0.0000
2023-05-05T01:17:55.699Z,0.0000
2023-05-05T01:18:58.185Z,0.0000
2023-05-05T01:20:00.745Z,0.0000
2023-05-05T01:21:03.224Z,0.0000
2023-05-05T01:22:05.700Z,0.0000
2023-05-05T01:23:08.178Z,0.0000
2023-05-05T01:24:10.917Z,0.0000
2023-05-05T01:25:13.364Z,0.0000
2023-05-05T01:26:15.788Z,0.0000
2023-05-05T01:27:18.257Z,0.0000
2023-05-05T01:28:20.739Z,0.0000
2023-05-05T01:29:23.242Z,0.0000
2023-05-05T01:30:25.709Z,0.0000
2023-05-05T01:31:28.248Z,0.0000
2023-05-05T01:32:30.716Z,0.0000
2023-05-05T01:33:33.109Z,0.0000
2023-05-05T01:34:35.628Z,0.0000
2023-05-05T01:35:38.075Z,0.0000
2023-05-05T01:36:40.528Z,0.0000
2023-05-05T01:37:43.020Z,0.0000
2023-05-05T01:38:45.711Z,0.0000
2023-05-05T01:39:48.166Z,0.0000
2023-05-05T01:40:50.635Z,0.0000
2023-05-05T01:41:53.066Z,0.0000
2023-05-05T01:42:55.565Z,0.0000
2023-05-05T01:43:58.038Z,0.0000
2023-05-05T01:45:00.509Z,0.0000
2023-05-05T01:46:03.236Z,0.0000
2023-05-05T01:47:05.741Z,0.0000
2023-05-05T01:48:08.189Z,0.0000
2023-05-05T01:49:10.648Z,0.0000
2023-05-05T01:50:13.112Z,0.0000
2023-05-05T01:51:15.573Z,0.0000
2023-05-05T01:52:18.044Z,0.0000
2023-05-05T01:53:20.740Z,0.0000
2023-05-05T01:54:23.185Z,0.0000
2023-05-05T01:55:25.645Z,0.0000
2023-05-05T01:56:28.366Z,0.0000
2023-05-05T01:57:30.815Z,0.0000
2023-05-05T01:58:33.517Z,0.0000
2023-05-05T01:59:36.014Z,0.0000
2023-05-05T02:00:38.494Z,0.0000
2023-05-05T02:01:41.057Z,0.0000
2023-05-05T02:02:43.576Z,0.0000
2023-05-05T02:03:46.128Z,0.0000
2023-05-05T02:04:48.600Z,0.0000
2023-05-05T02:05:51.388Z,0.0000
2023-05-05T02:06:53.837Z,0.0000
2023-05-05T02:07:56.329Z,0.0000
2023-05-05T02:08:58.838Z,0.0000
2023-05-05T02:10:01.357Z,0.0000
2023-05-05T02:11:03.915Z,0.0000
2023-05-05T02:12:06.416Z,0.0000
2023-05-05T02:13:09.016Z,0.0000
2023-05-05T02:14:11.762Z,0.0000
2023-05-05T02:15:14.281Z,0.0000
2023-05-05T02:16:16.901Z,0.0000
2023-05-05T02:17:19.472Z,0.0000
2023-05-05T02:18:21.949Z,0.0000
2023-05-05T02:19:22.321Z,0.0000
2023-05-05T02:20:24.848Z,0.0000
2023-05-05T02:21:27.684Z,0.0000
2023-05-05T02:22:30.140Z,0.0000
2023-05-05T02:23:32.683Z,0.0000
2023-05-05T02:24:35.170Z,0.0000
2023-05-05T02:25:37.638Z,0.0000
2023-05-05T02:26:40.400Z,0.0000
2023-05-05T02:27:42.872Z,0.0000
2023-05-05T02:28:45.633Z,0.0000
2023-05-05T02:29:48.080Z,0.0000
2023-05-05T02:30:50.745Z,0.0000
2023-05-05T02:31:53.472Z,0.0000
2023-05-05T02:32:55.979Z,0.0000
2023-05-05T02:33:58.782Z,0.0000
2023-05-05T02:35:01.254Z,0.0000
2023-05-05T02:36:03.959Z,0.0000
2023-05-05T02:37:06.411Z,0.0000
2023-05-05T02:38:08.823Z,0.0000
2023-05-05T02:39:11.585Z,0.0000
2023-05-05T02:40:14.063Z,0.0000
2023-05-05T02:41:16.824Z,0.0000
2023-05-05T02:42:19.244Z,0.0000
2023-05-05T02:43:21.733Z,0.0000
2023-05-05T02:44:24.533Z,0.0000
2023-05-05T02:45:26.937Z,0.0000
2023-05-05T02:46:29.700Z,0.0000
2023-05-05T02:47:32.147Z,0.0000
2023-05-05T02:48:34.620Z,0.0000
2023-05-05T02:49:37.314Z,0.0000
2023-05-05T02:50:39.812Z,0.0000
2023-05-05T02:51:42.275Z,0.0000
2023-05-05T02:52:44.719Z,0.0000
2023-05-05T02:53:47.165Z,0.0000
2023-05-05T02:54:49.595Z,0.0000
2023-05-05T02:55:52.061Z,0.0000
2023-05-05T02:56:54.490Z,0.0000
2023-05-05T02:57:56.917Z,0.0000
2023-05-05T02:58:59.381Z,0.0000
2023-05-05T03:00:01.835Z,0.0000
2023-05-05T03:01:04.296Z,0.0000
2023-05-05T03:02:07.079Z,0.0000
2023-05-05T03:03:09.595Z,0.0000
2023-05-05T03:04:12.072Z,0.0000
2023-05-05T03:05:14.481Z,0.0000
2023-05-05T03:06:17.046Z,0.0000
2023-05-05T03:07:19.499Z,0.0000
2023-05-05T03:08:21.916Z,0.0000
2023-05-05T03:09:24.394Z,0.0000
2023-05-05T03:10:26.841Z,0.0000
2023-05-05T03:11:29.300Z,0.0000
2023-05-05T03:12:31.779Z,0.0000
2023-05-05T03:13:34.189Z,0.0000
2023-05-05T03:14:36.661Z,0.0000
2023-05-05T03:15:39.111Z,0.0000
2023-05-05T03:16:41.638Z,0.0000
2023-05-05T03:17:44.142Z,0.0000
2023-05-05T03:18:46.602Z,0.0000
2023-05-05T03:19:49.062Z,0.0000
2023-05-05T03:20:51.491Z,0.0000
2023-05-05T03:21:53.949Z,0.0000
2023-05-05T03:22:56.380Z,0.0000
2023-05-05T03:23:58.836Z,0.0000
2023-05-05T03:25:01.287Z,0.0000
2023-05-05T03:26:03.739Z,0.0000
2023-05-05T03:27:06.389Z,0.0000
2023-05-05T03:28:08.804Z,0.0000
2023-05-05T03:29:11.234Z,0.0000
2023-05-05T03:30:13.665Z,0.0000
2023-05-05T03:31:16.152Z,0.0000
2023-05-05T03:32:18.601Z,0.0000
2023-05-05T03:33:21.017Z,0.0000
2023-05-05T03:34:23.487Z,0.0000
2023-05-05T03:35:25.929Z,0.0000
2023-05-05T03:36:29.502Z,0.0000
2023-05-05T03:37:32.018Z,0.0000
2023-05-05T03:38:34.566Z,0.0000
2023-05-05T03:39:36.986Z,0.0000
2023-05-05T03:40:44.196Z,0.0000
2023-05-05T03:41:40.710Z,0.0000
2023-05-05T03:42:43.152Z,0.0000
2023-05-05T03:43:45.816Z,0.0000
2023-05-05T03:44:48.294Z,0.0000
2023-05-05T03:45:50.781Z,0.0000
2023-05-05T03:46:51.116Z,0.0000
2023-05-05T03:47:53.609Z,0.0000
2023-05-05T03:48:56.399Z,0.0000
2023-05-05T03:49:58.816Z,0.0000
2023-05-05T03:51:01.273Z,0.0000
2023-05-05T03:52:04.078Z,0.0000
2023-05-05T03:53:06.543Z,0.0000
2023-05-05T03:54:09.314Z,0.0000
2023-05-05T03:55:11.750Z,5.6250
2023-05-05T03:56:14.224Z,5.6250
2023-05-05T03:57:17.015Z,5.6250
2023-05-05T03:58:19.420Z,5.6250
2023-05-05T03:59:21.862Z,9.5956
2023-05-05T04:00:24.330Z,11.2500
2023-05-05T04:01:27.049Z,11.2500
2023-05-05T04:02:29.591Z,15.5515
2023-05-05T04:03:32.164Z,16.8750
2023-05-05T04:04:34.791Z,16.8750
2023-05-05T04:05:37.323Z,21.5074
2023-05-05T04:06:39.816Z,22.5000
2023-05-05T04:07:42.279Z,25.1471
2023-05-05T04:08:44.757Z,28.1250
2023-05-05T04:09:47.222Z,31.4338
2023-05-05T04:10:49.736Z,33.7500
2023-05-05T04:11:52.224Z,38.7132
2023-05-05T04:12:54.683Z,41.0294
2023-05-05T04:13:57.115Z,45.0000
2023-05-05T04:14:59.635Z,49.3015
2023-05-05T04:16:02.120Z,51.2868
2023-05-05T04:17:04.607Z,56.2500
2023-05-05T04:18:07.104Z,59.5588
2023-05-05T04:19:09.570Z,63.1985
2023-05-05T04:20:12.047Z,67.5000
2023-05-05T04:21:14.492Z,72.1324
2023-05-05T04:22:16.937Z,76.1029
2023-05-05T04:23:19.380Z,81.0662
2023-05-05T04:24:21.831Z,86.0294
2023-05-05T04:25:24.285Z,91.6544
2023-05-05T04:26:26.711Z,98.2721
2023-05-05T04:27:29.228Z,105.2206
2023-05-05T04:28:31.661Z,111.5074
2023-05-05T04:29:34.152Z,117.7941
2023-05-05T04:30:36.636Z,123.0882
2023-05-05T04:31:39.114Z,123.7500
2023-05-05T04:32:41.539Z,129.3750
2023-05-05T04:33:44.105Z,127.3897
2023-05-05T04:34:46.609Z,126.7279
2023-05-05T04:35:49.028Z,129.7059
2023-05-05T04:36:51.478Z,124.0809
2023-05-05T04:37:53.904Z,117.4632
2023-05-05T04:38:56.433Z,108.5294
2023-05-05T04:39:58.900Z,106.8750
2023-05-05T04:41:01.358Z,106.8750
2023-05-05T04:42:03.867Z,107.2059
2023-05-05T04:43:06.276Z,112.5000
2023-05-05T04:44:08.745Z,117.4632
2023-05-05T04:45:11.169Z,122.4265
2023-05-05T04:46:13.691Z,128.0515
2023-05-05T04:47:16.429Z,134.0074
2023-05-05T04:48:18.905Z,140.9559
2023-05-05T04:49:21.411Z,147.5735
2023-05-05T04:50:23.835Z,154.5221
2023-05-05T04:51:26.296Z,161.4706
2023-05-05T04:52:28.781Z,168.4191
2023-05-05T04:53:31.234Z,175.6985
2023-05-05T04:54:33.729Z,182.6471
2023-05-05T04:55:36.167Z,191.2500
2023-05-05T04:56:38.641Z,199.1912
2023-05-05T04:57:41.114Z,204.1544
2023-05-05T04:58:43.575Z,218.7132
2023-05-05T04:59:46.035Z,232.9412
2023-05-05T05:00:48.500Z,247.5000
2023-05-05T05:01:51.185Z,260.4044
2023-05-05T05:02:53.715Z,274.3015
2023-05-05T05:03:56.224Z,285.2206
2023-05-05T05:04:58.670Z,293.4926
2023-05-05T05:06:01.108Z,292.5000
2023-05-05T05:07:03.619Z,292.5000
2023-05-05T05:08:06.026Z,294.1544
2023-05-05T05:09:08.498Z,298.1250
2023-05-05T05:10:11.108Z,302.7574
2023-05-05T05:11:13.657Z,307.0588
2023-05-05T05:12:16.145Z,314.3382
2023-05-05T05:13:18.747Z,325.9191
2023-05-05T05:14:21.252Z,338.8235
2023-05-05T05:15:23.719Z,347.7574
2023-05-05T05:16:26.347Z,355.0368
2023-05-05T05:17:28.839Z,361.9853
2023-05-05T05:18:31.286Z,365.6250
2023-05-05T05:19:33.752Z,365.9559
2023-05-05T05:20:36.218Z,371.2500
2023-05-05T05:21:38.665Z,375.2206
2023-05-05T05:22:41.150Z,382.8309
2023-05-05T05:23:43.606Z,391.4338
2023-05-05T05:24:46.188Z,400.6985
2023-05-05T05:25:48.674Z,406.3235
2023-05-05T05:26:50.891Z,414.0000
2023-05-05T05:28:06.131Z,425.5147
2023-05-05T05:28:54.398Z,435.0000
2023-05-05T05:29:57.083Z,442.7206
2023-05-05T05:30:59.550Z,452.3162
2023-05-05T05:32:02.106Z,458.6029
2023-05-05T05:33:04.539Z,465.5515
2023-05-05T05:34:04.895Z,472.1484
2023-05-05T05:35:07.370Z,477.7941
2023-05-05T05:36:09.817Z,480.4412
2023-05-05T05:37:12.512Z,483.7500
2023-05-05T05:38:14.991Z,484.4118
2023-05-05T05:39:17.670Z,489.3750
2023-05-05T05:40:20.098Z,493.6765
2023-05-05T05:41:22.584Z,500.6250
2023-05-05T05:42:25.251Z,510.2206
2023-05-05T05:43:27.726Z,522.1323
2023-05-05T05:44:30.430Z,536.6912
2023-05-05T05:45:32.910Z,545.2941
2023-05-05T05:46:35.452Z,556.8750
2023-05-05T05:47:38.232Z,566.4706
2023-05-05T05:48:40.694Z,572.4265
2023-05-05T05:49:43.383Z,577.7206
2023-05-05T05:50:45.990Z,587.3162
2023-05-05T05:51:48.420Z,593.2720
2023-05-05T05:52:50.838Z,602.2059
2023-05-05T05:53:53.361Z,603.8603
2023-05-05T05:54:55.780Z,607.5000
2023-05-05T05:55:58.263Z,607.5000
2023-05-05T05:57:00.826Z,611.8015
2023-05-05T05:58:03.257Z,616.7647
2023-05-05T05:59:05.712Z,625.6985
2023-05-05T06:00:08.669Z,639.2647
2023-05-05T06:01:11.379Z,652.5000
2023-05-05T06:02:14.176Z,670.3677
2023-05-05T06:03:16.868Z,687.9044
2023-05-05T06:04:19.678Z,700.4780
2023-05-05T06:05:22.125Z,704.7794
2023-05-05T06:06:24.583Z,709.4117
2023-05-05T06:07:30.688Z,709.1016
2023-05-05T06:08:33.150Z,712.7206
2023-05-05T06:09:35.922Z,717.6838
2023-05-05T06:10:38.357Z,732.2427
2023-05-05T06:11:40.798Z,740.8456
2023-05-05T06:12:43.439Z,755.0735
2023-05-05T06:13:45.884Z,773.6030
2023-05-05T06:14:48.590Z,796.4338
2023-05-05T06:15:51.096Z,818.9338
2023-05-05T06:16:53.619Z,840.7720
2023-05-05T06:17:56.061Z,857.3162
2023-05-05T06:18:58.536Z,869.5588
2023-05-05T06:20:01.348Z,885.0000
2023-05-05T06:21:03.802Z,945.0000
2023-05-05T06:22:06.281Z,1281.5073
2023-05-05T06:23:08.742Z,1560.1104
2023-05-05T06:24:11.243Z,1591.8750
2023-05-05T06:25:13.927Z,1623.9706
2023-05-05T06:26:16.418Z,1590.2206
2023-05-05T06:27:18.884Z,1567.7206
2023-05-05T06:28:21.353Z,1565.0735
2023-05-05T06:29:23.958Z,1526.0294
2023-05-05T06:30:26.449Z,1597.1691
2023-05-05T06:31:28.977Z,1564.0809
2023-05-05T06:32:31.435Z,1626.6177
2023-05-05T06:33:33.881Z,1690.4779
2023-05-05T06:34:36.617Z,1760.6250
2023-05-05T06:35:39.044Z,1733.8235
2023-05-05T06:36:41.604Z,1774.5221
2023-05-05T06:37:44.392Z,1736.6250
2023-05-05T06:38:46.828Z,1651.4338
2023-05-05T06:39:49.314Z,1591.5441
2023-05-05T06:40:51.796Z,1602.7941
2023-05-05T06:41:54.271Z,1591.2133
2023-05-05T06:42:56.669Z,1549.5221
2023-05-05T06:43:59.103Z,1617.6838
2023-05-05T06:45:01.902Z,1620.0000
2023-05-05T06:46:04.327Z,1653.7500
2023-05-05T06:47:06.837Z,1688.1617
2023-05-05T06:48:09.335Z,1822.8309
2023-05-05T06:49:11.766Z,1400.6250
2023-05-05T06:50:14.277Z,1236.1765
2023-05-05T06:51:16.756Z,1390.6985
2023-05-05T06:52:19.242Z,1805.9559
2023-05-05T06:53:21.701Z,1965.4412
2023-05-05T06:54:24.198Z,2019.0441
2023-05-05T06:55:26.875Z,2165.6250
2023-05-05T06:56:29.364Z,2185.1470
2023-05-05T06:57:31.880Z,2158.6765
2023-05-05T06:58:34.358Z,2160.9927
2023-05-05T06:59:36.837Z,2197.7207
2023-05-05T07:00:39.412Z,2198.7131
2023-05-05T07:01:41.895Z,2145.7720
2023-05-05T07:02:42.702Z,2128.1250
2023-05-05T07:03:45.284Z,2053.7869
2023-05-05T07:04:48.026Z,1982.6471
2023-05-05T07:05:50.523Z,2003.1617
2023-05-05T07:06:53.005Z,1999.1912
2023-05-05T07:07:55.503Z,2021.0294
2023-05-05T07:08:57.976Z,1863.1985
2023-05-05T07:10:00.483Z,1958.8235
2023-05-05T07:11:02.960Z,1895.2941
2023-05-05T07:12:05.412Z,1868.1617
2023-05-05T07:13:07.977Z,1853.2721
2023-05-05T07:14:10.535Z,2147.4265
2023-05-05T07:15:26.933Z,2265.5515
2023-05-05T07:16:14.190Z,2256.0000
2023-05-05T07:17:16.693Z,2109.0442
2023-05-05T07:18:19.200Z,2037.5735
2023-05-05T07:19:21.717Z,2162.3162
2023-05-05T07:20:24.445Z,2099.4485
2023-05-05T07:21:27.081Z,2156.0293
2023-05-05T07:22:29.623Z,2143.7869
2023-05-05T07:23:32.163Z,2238.0881
2023-05-05T07:24:34.604Z,2305.9192
2023-05-05T07:25:37.119Z,2389.6323
2023-05-05T07:26:39.612Z,2437.2793
2023-05-05T07:28:42.438Z,2456.8015
2023-05-05T07:29:44.957Z,2574.9265
2023-05-05T07:30:47.482Z,2575.9192
2023-05-05T07:31:50.040Z,2561.3604
2023-05-05T07:32:52.541Z,2525.9558
2023-05-05T07:33:55.001Z,2446.8750
2023-05-05T07:34:57.507Z,2364.4854
2023-05-05T07:36:00.457Z,2319.3750
2023-05-05T07:37:02.957Z,2315.1838
2023-05-05T07:38:05.652Z,2374.5000
2023-05-05T07:39:08.448Z,2442.0000
2023-05-05T07:40:11.145Z,2566.9854
2023-05-05T07:41:13.787Z,2619.9265
2023-05-05T07:42:16.282Z,2639.1177
2023-05-05T07:43:18.810Z,2595.7720
2023-05-05T07:44:21.344Z,2705.2942
2023-05-05T07:45:24.112Z,2769.1543
2023-05-05T07:46:26.678Z,2807.2058
2023-05-05T07:47:29.200Z,2844.5957
2023-05-05T07:48:31.666Z,2872.0588
2023-05-05T07:49:34.411Z,2827.7207
2023-05-05T07:51:40.541Z,2806.5442
2023-05-05T07:52:48.416Z,2838.3088
2023-05-05T07:53:44.152Z,2740.1250
2023-05-05T07:54:46.685Z,2701.3235
2023-05-05T07:55:49.405Z,2801.5808
2023-05-05T07:56:51.975Z,2709.5957
2023-05-05T07:57:54.896Z,2687.2500
2023-05-05T07:58:57.409Z,2709.9265
2023-05-05T08:00:07.557Z,2578.2354
2023-05-05T08:01:10.208Z,2552.4265
2023-05-05T08:03:13.023Z,2818.1250
2023-05-05T08:04:15.595Z,3022.6104
2023-05-05T08:05:18.151Z,3022.9412
2023-05-05T08:06:20.655Z,3046.1030
2023-05-05T08:07:23.527Z,3031.8750
2023-05-05T08:08:26.081Z,2965.0369
2023-05-05T08:09:28.557Z,3027.5735
2023-05-05T08:10:31.323Z,3087.7500
2023-05-05T08:11:33.864Z,3081.1765
2023-05-05T08:12:36.327Z,3049.7427
2023-05-05T08:13:38.836Z,2981.2500
2023-05-05T08:14:41.350Z,2939.8896
2023-05-05T08:15:44.062Z,2904.7500
2023-05-05T08:16:46.558Z,2935.2573
2023-05-05T08:17:49.492Z,2862.3750
2023-05-05T08:18:52.195Z,2849.2500
2023-05-05T08:19:54.678Z,2863.4558
2023-05-05T08:20:57.160Z,2856.1765
2023-05-05T08:22:01.205Z,2922.0220
2023-05-05T08:23:00.322Z,3111.6797
2023-05-05T08:24:02.782Z,3142.0588
2023-05-05T08:25:05.415Z,3313.1250
2023-05-05T08:27:08.187Z,3471.2869
2023-05-05T08:28:10.681Z,3392.5369
2023-05-05T08:30:14.119Z,3453.4192
2023-05-05T08:31:16.635Z,3504.0442
2023-05-05T08:32:19.128Z,3344.8896
2023-05-05T08:33:21.624Z,3333.3088
2023-05-05T08:34:24.113Z,3415.0369
2023-05-05T08:35:26.611Z,3346.2131
2023-05-05T08:36:29.103Z,3275.7354
2023-05-05T08:37:31.672Z,3376.9854
2023-05-05T08:38:34.146Z,3353.1619
2023-05-05T08:39:36.637Z,3245.9558
2023-05-05T08:40:39.147Z,3154.6323
2023-05-05T08:41:41.647Z,3209.8896
2023-05-05T08:42:44.155Z,3317.7573
2023-05-05T08:43:46.652Z,3347.2058
2023-05-05T08:44:49.641Z,3296.2500
2023-05-05T08:45:52.155Z,3213.8604
2023-05-05T08:46:54.694Z,3236.0293
2023-05-05T08:47:57.168Z,3186.7280
2023-05-05T08:48:59.672Z,3372.0220
2023-05-05T08:50:02.283Z,3472.2793
2023-05-05T08:51:05.670Z,3405.7720
2023-05-05T08:52:08.256Z,3208.2354
2023-05-05T08:53:10.742Z,3083.8235
2023-05-05T08:54:13.245Z,3017.9780
2023-05-05T08:55:15.826Z,3194.6692
2023-05-05T08:57:18.689Z,3187.3896
2023-05-05T08:58:21.188Z,3341.9119
2023-05-05T08:59:23.672Z,3415.0369
2023-05-05T09:00:26.164Z,3457.3896
2023-05-05T09:02:29.511Z,3556.3235
2023-05-05T09:03:32.040Z,3611.5808
2023-05-05T09:04:34.614Z,3533.1619
2023-05-05T09:05:37.356Z,3610.8750
2023-05-05T09:06:39.805Z,3522.5735
2023-05-05T09:07:42.312Z,3412.7207
2023-05-05T09:08:44.596Z,3322.5000
2023-05-05T09:09:47.072Z,3429.5957
2023-05-05T09:10:52.929Z,3468.5156
2023-05-05T09:11:55.487Z,3564.2646
2023-05-05T09:12:57.989Z,3650.9558
2023-05-05T09:14:00.494Z,3762.7942
2023-05-05T09:15:02.996Z,3756.1765
2023-05-05T09:16:05.525Z,3824.6692
2023-05-05T09:17:08.002Z,3816.7280
2023-05-05T09:18:10.572Z,3802.8308
2023-05-05T09:19:13.019Z,3693.3088
2023-05-05T09:20:15.519Z,3580.8088
2023-05-05T09:21:18.003Z,3419.3381
2023-05-05T09:22:20.492Z,3165.8823
2023-05-05T09:23:22.991Z,3115.5881
2023-05-05T09:24:25.485Z,3083.4927
2023-05-05T09:25:27.978Z,3481.8750
2023-05-05T09:26:30.486Z,3683.3823
2023-05-05T09:27:32.986Z,3740.6250
2023-05-05T09:28:35.490Z,3781.9854
2023-05-05T09:29:38.002Z,3763.1250
2023-05-05T09:30:40.269Z,3891.0000
2023-05-05T09:31:42.769Z,4011.6177
2023-05-05T09:32:43.849Z,3846.2500
2023-05-05T09:34:47.003Z,3887.5369
2023-05-05T09:35:49.239Z,4056.7500
2023-05-05T09:36:51.743Z,3976.8750
2023-05-05T09:37:54.235Z,3954.7058
2023-05-05T09:38:58.780Z,3869.3381
2023-05-05T09:39:57.487Z,3473.4375
2023-05-05T09:40:59.970Z,3612.9043
2023-05-05T09:42:02.437Z,3876.9485
2023-05-05T09:43:04.962Z,3977.8677
2023-05-05T09:44:07.461Z,4073.1619
2023-05-05T09:45:10.109Z,3453.4192
2023-05-05T09:46:12.662Z,3341.5808
2023-05-05T09:47:28.539Z,3397.1250
2023-05-05T09:48:16.498Z,3458.2500
2023-05-05T09:49:18.998Z,3313.1250
2023-05-05T09:50:21.492Z,3325.6985
2023-05-05T09:51:23.950Z,3340.5881
2023-05-05T09:52:26.502Z,3485.5146
2023-05-05T09:53:28.980Z,3310.1470
2023-05-05T09:54:31.487Z,3362.7573
2023-05-05T09:55:34.324Z,3468.3088
2023-05-05T09:56:36.834Z,3404.1177
2023-05-05T09:57:39.372Z,3410.4043
2023-05-05T09:58:41.967Z,3586.1030
2023-05-05T09:59:44.477Z,3863.7131
2023-05-05T10:00:46.989Z,3968.6030
2023-05-05T10:01:49.510Z,3778.6765
2023-05-05T10:02:52.034Z,3574.5220
2023-05-05T10:03:54.516Z,3578.1619
2023-05-05T10:04:57.144Z,3722.0957
2023-05-05T10:05:59.674Z,3547.3896
2023-05-05T10:07:02.179Z,3590.7354
2023-05-05T10:08:04.679Z,3539.4485
2023-05-05T10:09:07.177Z,3640.0369
2023-05-05T10:10:09.862Z,3522.2427
2023-05-05T10:11:12.640Z,3611.2500
2023-05-05T10:12:15.357Z,3495.0000
2023-05-05T10:13:17.944Z,3351.1765
2023-05-05T10:14:20.551Z,3294.5957
2023-05-05T10:15:23.047Z,3286.9854
2023-05-05T10:16:26.796Z,3330.3308
2023-05-05T10:17:26.287Z,3067.3828
2023-05-05T10:18:28.782Z,3020.9558
2023-05-05T10:19:31.265Z,2999.1177
2023-05-05T10:20:33.795Z,3034.8530
2023-05-05T10:21:36.283Z,3159.5957
2023-05-05T10:22:38.933Z,3322.0588
2023-05-05T10:23:41.418Z,3564.9265
2023-05-05T10:24:43.915Z,3775.0369
2023-05-05T10:25:46.434Z,3705.5515
2023-05-05T10:26:48.921Z,3480.2207
2023-05-05T10:27:51.694Z,3054.3750
2023-05-05T10:28:54.176Z,2845.2573
2023-05-05T10:29:56.699Z,3081.5073
2023-05-05T10:30:59.202Z,3340.9192
2023-05-05T10:32:08.739Z,3318.0000
2023-05-05T10:33:27.249Z,3124.2856
2023-05-05T10:34:08.464Z,2993.2500
2023-05-05T10:35:10.979Z,2851.8750
2023-05-05T10:36:13.533Z,2782.7207
2023-05-05T10:37:15.996Z,2835.3308
2023-05-05T10:38:18.531Z,2922.6838
2023-05-05T10:39:21.010Z,2822.0957
2023-05-05T10:40:23.555Z,2794.6323
2023-05-05T10:41:26.192Z,2873.3823
2023-05-05T10:42:28.975Z,2970.3750
2023-05-05T10:43:31.497Z,3065.9558
2023-05-05T10:44:33.985Z,3419.6692
2023-05-05T10:45:36.570Z,3675.1104
2023-05-05T10:46:39.175Z,3756.1765
2023-05-05T10:47:41.700Z,3878.2720
2023-05-05T10:48:44.273Z,3812.7573
2023-05-05T10:49:46.782Z,3565.5881
2023-05-05T10:50:49.288Z,3619.1912
2023-05-05T10:52:52.011Z,3728.3823
2023-05-05T10:54:02.225Z,3985.4780
2023-05-05T10:55:04.705Z,4065.5515
2023-05-05T10:56:07.187Z,4147.9414
2023-05-05T10:57:09.714Z,4150.9189
2023-05-05T10:58:12.239Z,4034.4485
2023-05-05T10:59:15.569Z,4075.5000
2023-05-05T11:00:18.104Z,4077.1323
2023-05-05T11:01:20.688Z,3979.8530
2023-05-05T11:02:23.343Z,4005.9927
2023-05-05T11:03:23.397Z,4024.6875
2023-05-05T11:04:25.987Z,3597.0220
2023-05-05T11:05:28.457Z,3871.3235
2023-05-05T11:06:31.172Z,3789.3750
2023-05-05T11:07:33.671Z,3567.5735
2023-05-05T11:08:36.149Z,3686.6912
2023-05-05T11:09:38.667Z,3614.5588
2023-05-05T11:10:41.135Z,3500.0735
2023-05-05T11:11:43.791Z,3311.8015
2023-05-05T11:12:46.350Z,3133.1250
2023-05-05T11:13:49.049Z,3263.8235
2023-05-05T11:14:51.628Z,3353.4927
2023-05-05T11:15:54.235Z,3280.0369
2023-05-05T11:16:56.949Z,3488.1619
2023-05-05T11:17:59.597Z,3625.4780
2023-05-05T11:19:02.111Z,3714.4854
2023-05-05T11:20:04.670Z,3778.3457
2023-05-05T11:21:07.168Z,3940.8088
2023-05-05T11:22:09.672Z,4187.6470
2023-05-05T11:23:14.003Z,4095.3308
2023-05-05T11:24:14.962Z,4348.4766
2023-05-05T11:25:18.255Z,4225.0366
2023-05-05T11:26:26.008Z,4137.0000
2023-05-05T11:27:21.180Z,3924.7500
2023-05-05T11:28:23.729Z,3894.8162
2023-05-05T11:29:26.222Z,4144.6323
2023-05-05T11:30:29.409Z,4301.2500
2023-05-05T11:31:32.029Z,4382.5366
2023-05-05T11:32:34.604Z,4227.0220
2023-05-05T11:33:37.099Z,4168.7866
2023-05-05T11:34:39.599Z,4187.9780
2023-05-05T11:35:42.082Z,4281.2866
2023-05-05T11:36:44.589Z,4125.1104
2023-05-05T11:37:47.093Z,4302.4634
2023-05-05T11:38:49.585Z,4279.6323
2023-05-05T11:39:52.075Z,4206.5073
2023-05-05T11:40:54.783Z,4382.5366
2023-05-05T11:41:57.241Z,4494.3750
2023-05-05T11:42:59.733Z,4479.1543
2023-05-05T11:44:02.240Z,4218.0884
2023-05-05T11:45:04.724Z,4434.4854
2023-05-05T11:46:07.262Z,4395.1104
2023-05-05T11:47:09.726Z,4721.0293
2023-05-05T11:48:12.532Z,4684.6323
2023-05-05T11:49:14.998Z,4551.2866
2023-05-05T11:50:17.738Z,4079.7793
2023-05-05T11:51:20.257Z,4147.9414
2023-05-05T11:52:22.750Z,3600.3308
2023-05-05T11:53:25.295Z,3604.6323
2023-05-05T11:54:27.829Z,3774.3750
2023-05-05T11:55:30.287Z,3065.6250
2023-05-05T11:56:32.798Z,3624.8162
2023-05-05T11:57:35.286Z,3156.9485
2023-05-05T11:58:37.791Z,2561.6912
2023-05-05T11:59:40.290Z,2179.5220
2023-05-05T12:00:42.799Z,2090.8457
2023-05-05T12:01:45.308Z,1974.7059
2023-05-05T12:02:47.862Z,1961.4706
2023-05-05T12:03:50.746Z,1999.5221
2023-05-05T12:04:53.380Z,2041.8750
2023-05-05T12:05:56.032Z,2172.5735
2023-05-05T12:06:58.461Z,2439.5957
2023-05-05T12:08:00.936Z,2561.3604
2023-05-05T12:09:03.409Z,2697.6838
2023-05-05T12:10:05.966Z,2929.6323
2023-05-05T12:11:08.458Z,3491.1396
2023-05-05T12:12:10.946Z,4152.5737
2023-05-05T12:13:13.468Z,3696.6177
2023-05-05T12:14:16.103Z,3736.3235
2023-05-05T12:15:18.560Z,3808.1250
2023-05-05T12:16:21.147Z,3856.7646
2023-05-05T12:17:23.625Z,3689.0073
2023-05-05T12:18:26.085Z,3494.7793
2023-05-05T12:19:28.579Z,3309.4854
2023-05-05T12:20:31.076Z,3169.1912
2023-05-05T12:21:33.566Z,3358.1250
2023-05-05T12:22:36.118Z,3290.6250
2023-05-05T12:23:38.627Z,3014.0073
2023-05-05T12:24:41.104Z,2992.8308
2023-05-05T12:25:43.559Z,3251.2500
2023-05-05T12:26:46.066Z,3187.7207
2023-05-05T12:27:48.534Z,3825.6619